Port Hadlock, Washington
Current Conditions -  °F | °C
As of 1:56 PM on Monday 22 Dec 2014 (Local Time) from KNUW Reporting Station
Overcast Overcast  
Wind Chill: 52°   Ceiling: 3000
Heat Index: 52°   Visibility: 7mi
Dew Point: 41°   Wind: 6mph
Humidity: 66%   Direction: 190°S
Pressure: 30.39"   Gusts: NA
Location:  48.03°N, 122.76°W
Report Text: KNUW 222156Z 19005KT 7SM BKN030 BKN050 OVC160 11/05 A3039 RMK AO2 SLP294 T01110050 VISNO E $
Loading
Personal Weather Stations






























Interactive Weather Map New forecast layout! Learn more

10-Day Weather Forecast

Advertisements
Track Severe Weather on mobile